Terminal Aerodrome Forecast
Issued by NWS

Home | Current Version | Previous Version | Text Only | Print | Product List | Glossary On
Versions: 1 2 3 4 5 6 7 8 9 10 11 12 13 14 15 16 17 18 19
488
FTUS46 KMTR 271731
TAFSFO
TAF
KSFO 271731Z 2718/2824 30009KT P6SM FEW070
     FM272100 30016KT P6SM FEW070
     FM280400 29010KT P6SM FEW070
     FM281100 29005KT P6SM SCT010
     FM281700 30010KT P6SM FEW010
     FM282100 20015KT P6SM FEW010=

USA.gov is the U.S. government's official web portal to all federal, state and local government web resources and services.